Time;durP1;ratioP1;P1;durP2;ratioP2;P2;SDS_P1;SDS_P2;PMS_P1;PMS_P2;Temp;Humidity;BMP_temperature;BMP_pressure;BME280_temperature;BME280_humidity;BME280_pressure;Samples;Min_cycle;Max_cycle;Signal;HPM_P1;HPM_P2
2022/10/23 00:01:16;;;;;;;6.53;3.08;;;;;;;13.35;100.00;101922.63;2103069;28;20044;-73
2022/10/23 00:02:38;;;;;;;6.80;2.70;;;;;;;13.32;100.00;101922.56;2102096;28;20078;-73
2022/10/23 00:04:04;;;;;;;9.07;2.92;;;;;;;13.31;100.00;101926.06;2101887;28;20040;-73
2022/10/23 00:05:27;;;;;;;10.77;2.63;;;;;;;13.31;100.00;101931.38;2103262;28;20048;-73
2022/10/23 00:06:50;;;;;;;8.98;3.17;;;;;;;13.34;100.00;101915.50;2102732;28;20105;-73
2022/10/23 00:08:11;;;;;;;9.32;3.25;;;;;;;13.38;100.00;101919.16;2101204;28;20537;-72
2022/10/23 00:09:34;;;;;;;9.57;3.22;;;;;;;13.43;100.00;101917.47;2093994;28;20068;-73
2022/10/23 00:10:55;;;;;;;8.15;2.67;;;;;;;13.49;100.00;101923.81;2091441;28;20052;-72
2022/10/23 00:12:18;;;;;;;9.45;2.85;;;;;;;13.53;100.00;101917.72;2091603;28;20139;-73
2022/10/23 00:13:40;;;;;;;7.18;2.80;;;;;;;13.55;100.00;101921.31;2094076;28;20048;-73
2022/10/23 00:15:04;;;;;;;7.28;2.75;;;;;;;13.54;100.00;101921.25;2099704;28;20109;-73
2022/10/23 00:16:27;;;;;;;6.78;2.53;;;;;;;13.49;100.00;101914.97;2105395;28;20188;-73
2022/10/23 00:17:49;;;;;;;6.93;2.55;;;;;;;13.45;100.00;101914.03;2096975;28;20067;-73
2022/10/23 00:19:13;;;;;;;6.03;2.83;;;;;;;13.41;100.00;101914.78;2108531;28;20052;-73
2022/10/23 00:20:34;;;;;;;7.03;2.47;;;;;;;13.39;100.00;101918.28;2095710;28;20488;-73
2022/10/23 00:21:57;;;;;;;5.07;2.47;;;;;;;13.39;100.00;101915.63;2099954;28;20129;-73
2022/10/23 00:23:18;;;;;;;9.55;2.85;;;;;;;13.41;100.00;101924.50;2102320;28;20112;-73
2022/10/23 00:24:40;;;;;;;7.88;2.55;;;;;;;13.40;100.00;101922.72;2102029;28;20054;-74
2022/10/23 00:26:03;;;;;;;9.77;2.90;;;;;;;13.42;100.00;101913.94;2096643;28;20048;-73
2022/10/23 00:27:26;;;;;;;8.88;2.78;;;;;;;13.44;100.00;101912.22;2094259;28;20079;-73
2022/10/23 00:28:50;;;;;;;6.70;2.92;;;;;;;13.44;100.00;101920.19;2099255;28;20044;-73
2022/10/23 00:30:14;;;;;;;6.00;2.72;;;;;;;13.45;100.00;101918.44;2093530;28;20063;-73
2022/10/23 00:31:36;;;;;;;10.98;3.15;;;;;;;13.41;100.00;101913.91;2099776;28;20100;-73
2022/10/23 00:32:59;;;;;;;10.27;3.10;;;;;;;13.39;100.00;101912.97;2102420;28;20040;-73
2022/10/23 00:34:21;;;;;;;11.55;3.72;;;;;;;13.36;100.00;101920.84;2095580;28;20458;-73
2022/10/23 00:35:43;;;;;;;9.52;3.05;;;;;;;13.32;100.00;101914.59;2096786;28;20036;-73
2022/10/23 00:37:05;;;;;;;8.75;2.60;;;;;;;13.32;100.00;101919.00;2085906;28;20144;-73
2022/10/23 00:38:27;;;;;;;9.82;2.83;;;;;;;13.29;100.00;101929.53;2090710;28;20494;-73
2022/10/23 00:39:49;;;;;;;7.38;2.65;;;;;;;13.22;100.00;101917.00;2098558;28;20487;-73
2022/10/23 00:41:15;;;;;;;10.98;3.22;;;;;;;13.18;100.00;101928.41;2094221;28;20048;-72
2022/10/23 00:42:37;;;;;;;7.85;2.58;;;;;;;13.14;100.00;101924.75;2094552;28;20605;-73
2022/10/23 00:44:06;;;;;;;8.75;2.80;;;;;;;13.13;100.00;101923.84;2091288;28;20040;-73
2022/10/23 00:45:32;;;;;;;10.30;2.90;;;;;;;13.13;100.00;101931.81;2101029;28;20070;-73
2022/10/23 00:46:54;;;;;;;6.95;2.75;;;;;;;13.15;100.00;101926.56;2102417;28;20044;-73
2022/10/23 00:48:18;;;;;;;8.27;3.00;;;;;;;13.14;100.00;101928.31;2096352;28;20514;-73
2022/10/23 00:49:40;;;;;;;6.78;2.65;;;;;;;13.11;100.00;101927.31;2094402;28;20048;-73
2022/10/23 00:51:02;;;;;;;9.55;2.70;;;;;;;13.08;100.00;101927.22;2084134;28;20555;-73
2022/10/23 00:52:24;;;;;;;6.95;3.05;;;;;;;13.06;100.00;101934.28;2097853;28;20040;-73
2022/10/23 00:53:50;;;;;;;9.75;2.95;;;;;;;13.05;100.00;101930.72;2093607;28;20040;-73
2022/10/23 00:55:13;;;;;;;10.18;3.20;;;;;;;13.07;100.00;101930.72;2096674;28;20063;-72
2022/10/23 00:56:38;;;;;;;;;;;;;;;13.05;100.00;101932.47;2102768;28;20047;-72
2022/10/23 00:58:01;;;;;;;9.85;3.42;;;;;;;13.07;100.00;101928.97;2095119;28;19920;-72
2022/10/23 00:59:31;;;;;;;9.00;2.72;;;;;;;13.10;100.00;101931.72;2098756;28;20040;-73
2022/10/23 01:00:55;;;;;;;7.65;3.05;;;;;;;13.12;100.00;101931.78;2090098;28;20140;-73
2022/10/23 01:02:18;;;;;;;6.97;2.85;;;;;;;13.11;100.00;101928.22;2091826;28;20047;-72
2022/10/23 01:03:40;;;;;;;11.07;3.35;;;;;;;13.11;100.00;101927.31;2099176;28;20064;-72
2022/10/23 01:05:02;;;;;;;11.10;3.42;;;;;;;13.09;100.00;101931.69;2093802;28;20427;-72
2022/10/23 01:06:36;;;;;;;7.82;3.08;;;;;;;13.10;100.00;101928.16;2099522;28;20101;-72
2022/10/23 01:08:07;;;;;;;9.40;3.00;;;;;;;13.05;100.00;101930.72;2095223;28;20048;-72
2022/10/23 01:09:35;;;;;;;9.52;3.30;;;;;;;13.03;100.00;101929.78;2102399;28;20135;-72
2022/10/23 01:11:05;;;;;;;5.88;2.63;;;;;;;13.04;100.00;101930.69;2094865;28;20071;-72
2022/10/23 01:12:37;;;;;;;8.48;2.78;;;;;;;13.03;100.00;101928.88;2095018;28;20052;-73
2022/10/23 01:14:03;;;;;;;9.55;2.72;;;;;;;13.04;100.00;101928.94;2096088;28;20072;-72
2022/10/23 01:15:32;;;;;;;12.32;4.30;;;;;;;13.03;100.00;101929.78;2100012;28;20044;-72
2022/10/23 01:17:04;;;;;;;13.50;5.28;;;;;;;13.01;100.00;101925.28;2103068;28;20089;-72
2022/10/23 01:18:36;;;;;;;13.38;5.47;;;;;;;12.98;100.00;101930.53;2094631;28;20377;-73
2022/10/23 01:20:12;;;;;;;7.38;3.75;;;;;;;12.95;100.00;101935.75;2095484;28;20033;-72
2022/10/23 01:21:41;;;;;;;8.05;2.72;;;;;;;12.89;100.00;101935.59;2091470;28;20049;-73
2022/10/23 01:23:17;;;;;;;8.77;2.92;;;;;;;12.83;100.00;101940.75;2094359;28;20055;-72
2022/10/23 01:24:46;;;;;;;12.25;3.20;;;;;;;12.82;100.00;101933.63;2102959;28;20145;-73
2022/10/23 01:26:27;;;;;;;9.48;2.88;;;;;;;12.84;100.00;101931.94;2086442;28;20047;-72
2022/10/23 01:27:56;;;;;;;6.45;3.00;;;;;;;12.85;100.00;101929.34;2095310;28;20045;-72
2022/10/23 01:29:24;;;;;;;7.65;2.92;;;;;;;12.92;100.00;101935.69;2102870;28;20040;-72
2022/10/23 01:30:47;;;;;;;8.40;3.13;;;;;;;12.94;100.00;101934.84;2094685;28;20592;-73
2022/10/23 01:32:15;;;;;;;8.07;2.80;;;;;;;12.96;100.00;101932.22;2091506;28;20072;-72
2022/10/23 01:33:42;;;;;;;11.48;3.53;;;;;;;12.93;100.00;101929.53;2091036;28;20635;-72
2022/10/23 01:35:10;;;;;;;6.05;2.55;;;;;;;12.89;100.00;101940.88;2093120;28;20044;-75
2022/10/23 01:36:34;;;;;;;11.25;3.17;;;;;;;12.90;100.00;101937.38;2094337;28;20052;-73
2022/10/23 01:38:05;;;;;;;9.57;2.83;;;;;;;12.93;100.00;101942.78;2099856;28;20132;-72
2022/10/23 01:39:34;;;;;;;8.32;2.70;;;;;;;12.94;100.00;101940.16;2094009;28;20048;-73
2022/10/23 01:41:01;;;;;;;7.47;3.20;;;;;;;12.96;100.00;101940.19;2089684;28;20552;-73
2022/10/23 01:42:30;;;;;;;12.38;3.50;;;;;;;12.98;100.00;101941.13;2085875;28;20515;-73
2022/10/23 01:44:00;;;;;;;9.05;3.00;;;;;;;12.98;100.00;101941.13;2087230;28;20049;-72
2022/10/23 01:45:33;;;;;;;10.50;3.45;;;;;;;12.94;100.00;101933.94;2094920;28;20052;-73
2022/10/23 01:46:58;;;;;;;12.68;3.60;;;;;;;12.90;100.00;101935.63;2086302;28;20406;-73
2022/10/23 01:48:27;;;;;;;9.43;3.75;;;;;;;12.88;100.00;101936.44;2095400;28;20072;-72
2022/10/23 01:49:52;;;;;;;6.72;3.00;;;;;;;12.84;100.00;101942.53;2093677;28;20607;-73
2022/10/23 01:51:15;;;;;;;9.45;2.70;;;;;;;12.82;100.00;101938.94;2101579;28;20052;-73
2022/10/23 01:52:38;;;;;;;13.82;3.10;;;;;;;12.83;100.00;101944.28;2103798;28;20040;-72
2022/10/23 01:54:00;;;;;;;7.43;3.17;;;;;;;12.85;100.00;101952.28;2095193;28;20052;-73
2022/10/23 01:55:25;;;;;;;8.57;2.97;;;;;;;12.86;100.00;101948.78;2088404;28;20052;-73
2022/10/23 01:56:50;;;;;;;7.47;3.10;;;;;;;12.88;100.00;101944.41;2089899;28;20056;-72
2022/10/23 01:58:20;;;;;;;12.05;3.30;;;;;;;12.88;100.00;101944.41;2094637;28;20036;-73
2022/10/23 01:59:49;;;;;;;8.18;3.15;;;;;;;12.90;100.00;101948.00;2082425;28;20584;-73
2022/10/23 02:01:13;;;;;;;11.32;3.13;;;;;;;12.90;100.00;101946.25;2094299;28;20049;-73
2022/10/23 02:02:45;;;;;;;8.77;3.15;;;;;;;12.90;100.00;101946.25;2096505;28;20045;-73
2022/10/23 02:04:09;;;;;;;5.75;3.10;;;;;;;12.89;100.00;101946.19;2092715;28;20139;-73
2022/10/23 02:05:32;;;;;;;8.18;3.72;;;;;;;12.87;100.00;101947.91;2101470;28;20050;-73
2022/10/23 02:06:56;;;;;;;11.90;2.78;;;;;;;12.86;100.00;101946.13;2095671;28;20047;-73
2022/10/23 02:08:19;;;;;;;10.60;3.03;;;;;;;12.87;100.00;101950.53;2101998;28;20138;-72
2022/10/23 02:09:40;;;;;;;15.52;5.28;;;;;;;12.87;100.00;101955.84;2087146;28;20044;-72
2022/10/23 02:11:10;;;;;;;69.32;41.58;;;;;;;12.90;100.00;101955.94;2092476;28;20440;-72
2022/10/23 02:12:40;;;;;;;36.08;20.15;;;;;;;12.91;100.00;101949.78;2095865;28;20565;-73
2022/10/23 02:14:11;;;;;;;18.50;10.25;;;;;;;12.93;100.00;101954.25;2087956;28;20445;-73
2022/10/23 02:15:39;;;;;;;20.08;10.75;;;;;;;12.92;100.00;101960.44;2103049;28;20396;-73
2022/10/23 02:17:14;;;;;;;17.05;8.43;;;;;;;12.86;100.00;101952.34;2097232;28;20465;-73
2022/10/23 02:18:46;;;;;;;9.90;4.63;;;;;;;12.81;100.00;101950.41;2095370;28;20660;-73
2022/10/23 02:20:20;;;;;;;12.63;6.00;;;;;;;12.75;100.00;101952.03;2092999;28;20065;-73
2022/10/23 02:21:52;;;;;;;10.52;4.78;;;;;;;12.73;100.00;101951.09;2095731;28;20051;-73
2022/10/23 02:23:21;;;;;;;11.18;4.28;;;;;;;12.71;100.00;101949.28;2111483;28;20052;-73
2022/10/23 02:24:48;;;;;;;9.45;4.00;;;;;;;12.72;100.00;101949.31;2088783;28;20477;-72
2022/10/23 02:26:15;;;;;;;12.25;4.15;;;;;;;12.73;100.00;101955.53;2092190;28;20048;-73
2022/10/23 02:27:46;;;;;;;11.18;4.45;;;;;;;12.74;100.00;101946.69;2104835;28;20048;-73
2022/10/23 02:29:14;;;;;;;9.90;3.70;;;;;;;12.74;100.00;101952.88;2095109;28;20049;-73
2022/10/23 02:30:46;;;;;;;11.27;4.70;;;;;;;12.75;100.00;101953.78;2102910;28;20051;-72
2022/10/23 02:32:09;;;;;;;9.32;4.60;;;;;;;12.72;100.00;101946.69;2103721;28;20051;-72
2022/10/23 02:33:33;;;;;;;5.53;3.22;;;;;;;12.71;100.00;101949.28;2094013;28;20052;-72
2022/10/23 02:34:56;;;;;;;7.68;3.38;;;;;;;12.67;100.00;101952.69;2089401;28;20045;-72
2022/10/23 02:36:18;;;;;;;7.40;3.10;;;;;;;12.65;100.00;101951.78;2098827;28;20048;-73
2022/10/23 02:37:41;;;;;;;;;;;;;;;12.60;100.00;101948.13;2095278;28;20049;-73
2022/10/23 02:39:03;;;;;;;11.10;3.30;;;;;;;12.59;100.00;101952.50;2084085;28;19974;-73
2022/10/23 02:40:34;;;;;;;11.40;4.65;;;;;;;12.63;100.00;101946.44;2092540;28;20058;-73
2022/10/23 02:42:02;;;;;;;9.25;3.72;;;;;;;12.68;100.00;101951.84;2087813;28;20040;-73
2022/10/23 02:43:31;;;;;;;9.75;4.00;;;;;;;12.71;100.00;101952.81;2093257;28;20504;-73
2022/10/23 02:45:03;;;;;;;7.65;3.75;;;;;;;12.74;100.00;101952.88;2093929;28;20514;-72
2022/10/23 02:46:34;;;;;;;8.15;4.13;;;;;;;12.75;100.00;101952.03;2103468;28;20166;-73
2022/10/23 02:48:04;;;;;;;8.02;4.40;;;;;;;12.75;100.00;101956.44;2089147;28;20044;-72
2022/10/23 02:49:34;;;;;;;9.13;3.80;;;;;;;12.74;100.00;101955.53;2095155;28;20180;-72
2022/10/23 02:51:03;;;;;;;8.05;3.72;;;;;;;12.71;100.00;101952.81;2093863;28;20493;-73
2022/10/23 02:52:36;;;;;;;8.10;3.10;;;;;;;12.69;100.00;101948.34;2093188;28;20045;-72
2022/10/23 02:54:06;;;;;;;13.18;3.00;;;;;;;12.68;100.00;101960.69;2094443;28;20078;-72
2022/10/23 02:55:40;;;;;;;10.43;3.33;;;;;;;12.68;100.00;101954.47;2099870;28;20091;-72
2022/10/23 02:57:02;;;;;;;;;;;;;;;12.63;100.00;101953.47;2105049;28;20093;-72
2022/10/23 02:58:33;;;;;;;7.90;2.65;;;;;;;12.66;100.00;101953.56;2094989;28;19979;-73
2022/10/23 03:00:02;;;;;;;11.18;2.45;;;;;;;12.70;100.00;101958.09;2093633;28;20143;-72
2022/10/23 03:01:34;;;;;;;8.23;3.17;;;;;;;12.72;100.00;101965.22;2102326;28;20180;-72
2022/10/23 03:03:01;;;;;;;7.70;3.13;;;;;;;12.71;100.00;101960.78;2095992;28;20049;-73
2022/10/23 03:04:28;;;;;;;6.72;2.60;;;;;;;12.71;100.00;101959.88;2093178;28;20056;-72
2022/10/23 03:05:51;;;;;;;11.75;2.90;;;;;;;12.72;100.00;101969.63;2101174;28;20071;-73
2022/10/23 03:07:13;;;;;;;8.25;2.67;;;;;;;12.71;100.00;101963.44;2105747;28;20616;-73
2022/10/23 03:08:42;;;;;;;11.95;2.67;;;;;;;12.72;100.00;101964.31;2102813;28;20052;-72
2022/10/23 03:10:05;;;;;;;9.23;2.40;;;;;;;12.71;100.00;101963.44;2087641;28;20049;-72
2022/10/23 03:11:28;;;;;;;9.23;3.40;;;;;;;12.71;100.00;101966.06;2091874;28;20095;-72
2022/10/23 03:12:51;;;;;;;8.90;2.40;;;;;;;12.70;100.00;101958.97;2100636;28;20044;-73
2022/10/23 03:14:14;;;;;;;7.22;2.78;;;;;;;12.72;100.00;101964.31;2094145;28;20036;-72
2022/10/23 03:15:37;;;;;;;6.47;2.70;;;;;;;12.73;100.00;101960.81;2091484;28;20468;-72
2022/10/23 03:17:00;;;;;;;8.00;3.15;;;;;;;12.74;100.00;101963.50;2100486;28;20105;-72
2022/10/23 03:18:23;;;;;;;9.07;2.60;;;;;;;12.76;100.00;101968.84;2089039;28;20053;-72
2022/10/23 03:19:45;;;;;;;10.60;3.55;;;;;;;12.76;100.00;101963.53;2089601;28;20158;-72
2022/10/23 03:21:09;;;;;;;5.47;2.40;;;;;;;12.77;100.00;101962.69;2091867;28;20135;-72
2022/10/23 03:22:32;;;;;;;9.90;2.88;;;;;;;12.78;100.00;101965.38;2100211;28;20381;-72
2022/10/23 03:23:54;;;;;;;8.02;2.78;;;;;;;12.77;100.00;101963.59;2094696;28;20040;-72
2022/10/23 03:25:29;;;;;;;6.32;2.50;;;;;;;12.75;100.00;101962.63;2094056;28;20041;-73
2022/10/23 03:26:54;;;;;;;10.38;3.15;;;;;;;12.72;100.00;101965.22;2101171;28;20059;-72
2022/10/23 03:28:28;;;;;;;8.43;2.55;;;;;;;12.68;100.00;101955.38;2087956;28;20643;-72
2022/10/23 03:29:49;;;;;;;8.30;2.47;;;;;;;12.66;100.00;101965.06;2091248;28;20056;-72
2022/10/23 03:31:13;;;;;;;8.55;3.00;;;;;;;12.64;100.00;101961.47;2092290;28;20170;-72
2022/10/23 03:32:38;;;;;;;9.38;2.80;;;;;;;12.62;100.00;101959.63;2094187;28;20049;-72
2022/10/23 03:34:01;;;;;;;6.35;2.25;;;;;;;12.60;100.00;101964.88;2100632;28;20459;-72
2022/10/23 03:35:23;;;;;;;9.15;3.15;;;;;;;12.58;100.00;101953.38;2105228;28;20052;-73
2022/10/23 03:36:46;;;;;;;9.98;2.70;;;;;;;12.60;100.00;101954.28;2102567;28;20365;-72
2022/10/23 03:38:09;;;;;;;9.40;3.00;;;;;;;12.61;100.00;101961.38;2102051;28;20051;-73
2022/10/23 03:39:32;;;;;;;7.68;2.40;;;;;;;12.63;100.00;101961.41;2101514;28;20044;-73
2022/10/23 03:40:54;;;;;;;7.68;2.42;;;;;;;12.66;100.00;101961.53;2094431;28;20417;-73
2022/10/23 03:42:16;;;;;;;8.05;2.70;;;;;;;12.68;100.00;101959.78;2091604;28;20048;-72
2022/10/23 03:43:40;;;;;;;9.23;2.80;;;;;;;12.68;100.00;101963.31;2097589;28;20040;-73
2022/10/23 03:45:02;;;;;;;6.63;2.40;;;;;;;12.70;100.00;101958.09;2094755;28;20044;-73
2022/10/23 03:46:25;;;;;;;9.73;2.80;;;;;;;12.70;100.00;101958.09;2086249;28;20072;-73
2022/10/23 03:47:51;;;;;;;12.10;2.70;;;;;;;12.71;100.00;101963.44;2092617;28;20097;-73
2022/10/23 03:49:13;;;;;;;6.50;2.80;;;;;;;12.72;100.00;101961.69;2100172;28;20056;-73
2022/10/23 03:50:38;;;;;;;9.60;2.47;;;;;;;12.73;100.00;101955.53;2086404;28;20049;-73
2022/10/23 03:52:01;;;;;;;7.47;2.67;;;;;;;12.74;100.00;101962.59;2092514;28;20070;-72
2022/10/23 03:53:23;;;;;;;6.57;2.45;;;;;;;12.74;100.00;101963.50;2100343;28;20089;-73
2022/10/23 03:54:45;;;;;;;7.55;2.38;;;;;;;12.74;100.00;101958.19;2093946;28;20052;-73
2022/10/23 03:56:07;;;;;;;12.27;2.60;;;;;;;12.76;100.00;101952.94;2093224;28;20123;-73
2022/10/23 03:57:30;;;;;;;7.85;3.20;;;;;;;12.77;100.00;101960.94;2100399;28;20535;-73
2022/10/23 03:58:52;;;;;;;9.40;2.58;;;;;;;12.78;100.00;101964.47;2102280;28;20036;-72
2022/10/23 04:00:15;;;;;;;7.70;2.40;;;;;;;12.78;100.00;101964.47;2102417;28;20154;-73
2022/10/23 04:01:40;;;;;;;10.63;2.50;;;;;;;12.77;100.00;101973.28;2094853;28;20047;-73
2022/10/23 04:03:05;;;;;;;9.93;2.90;;;;;;;12.74;100.00;101958.19;2093885;28;20528;-73
2022/10/23 04:04:26;;;;;;;7.03;2.42;;;;;;;12.71;100.00;101968.72;2085998;28;20057;-73
2022/10/23 04:05:49;;;;;;;14.52;3.45;;;;;;;12.69;100.00;101966.88;2092024;28;20393;-73
2022/10/23 04:07:12;;;;;;;7.65;2.72;;;;;;;12.66;100.00;101969.47;2083423;28;20049;-73
2022/10/23 04:08:34;;;;;;;7.97;2.45;;;;;;;12.64;100.00;101963.22;2090123;28;20056;-73
2022/10/23 04:09:59;;;;;;;9.85;2.90;;;;;;;12.63;100.00;101977.31;2075782;28;20461;-72
2022/10/23 04:11:21;;;;;;;6.88;2.28;;;;;;;12.61;100.00;101971.97;2089219;28;20152;-73
2022/10/23 04:12:44;;;;;;;10.48;2.50;;;;;;;12.63;100.00;101970.25;2094549;28;20076;-73
2022/10/23 04:14:07;;;;;;;9.63;2.60;;;;;;;12.64;100.00;101972.06;2086078;28;20143;-73
2022/10/23 04:15:31;;;;;;;7.50;2.90;;;;;;;12.66;100.00;101970.38;2092313;28;20159;-73
2022/10/23 04:16:54;;;;;;;8.38;2.70;;;;;;;12.69;100.00;101966.88;2085868;28;20515;-73
2022/10/23 04:18:19;;;;;;;5.90;2.47;;;;;;;12.71;100.00;101974.03;2091660;28;20048;-73
2022/10/23 04:19:42;;;;;;;7.50;2.00;;;;;;;12.69;100.00;101973.06;2087130;28;20052;-73
2022/10/23 04:21:05;;;;;;;5.43;2.50;;;;;;;12.66;100.00;101973.00;2100315;28;20064;-73
2022/10/23 04:22:28;;;;;;;10.10;2.60;;;;;;;12.63;100.00;101964.97;2094366;28;20477;-73
2022/10/23 04:23:51;;;;;;;6.28;2.60;;;;;;;12.61;100.00;101976.38;2091005;28;20044;-73
2022/10/23 04:25:15;;;;;;;5.50;2.50;;;;;;;12.59;100.00;101979.00;2102426;28;20056;-73
2022/10/23 04:26:38;;;;;;;9.32;2.45;;;;;;;12.58;100.00;101973.66;2094478;28;20056;-73
2022/10/23 04:27:59;;;;;;;9.00;2.60;;;;;;;12.59;100.00;101976.34;2096649;28;20076;-73
2022/10/23 04:29:23;;;;;;;10.50;2.70;;;;;;;12.60;100.00;101972.81;2102506;28;20040;-73
2022/10/23 04:30:44;;;;;;;5.80;2.17;;;;;;;12.64;100.00;101971.16;2094067;28;20135;-73
2022/10/23 04:32:08;;;;;;;9.57;2.67;;;;;;;12.68;100.00;101983.63;2091602;28;20475;-73
2022/10/23 04:33:31;;;;;;;7.63;2.28;;;;;;;12.69;100.00;101969.53;2100012;28;20048;-73
2022/10/23 04:34:53;;;;;;;8.35;3.20;;;;;;;12.69;100.00;101964.22;2102435;28;20123;-73
2022/10/23 04:36:16;;;;;;;6.47;2.25;;;;;;;12.68;100.00;101973.94;2110588;28;20449;-72
2022/10/23 04:37:37;;;;;;;6.97;2.83;;;;;;;12.67;100.00;101963.28;2096496;28;20052;-73
2022/10/23 04:39:01;;;;;;;5.50;2.40;;;;;;;12.64;100.00;101977.38;2099661;28;20132;-73
2022/10/23 04:40:24;;;;;;;10.07;2.90;;;;;;;12.62;100.00;101971.13;2093687;28;20040;-73
2022/10/23 04:41:49;;;;;;;10.93;2.80;;;;;;;12.61;100.00;101976.38;2092184;28;20048;-73
2022/10/23 04:43:10;;;;;;;7.65;2.20;;;;;;;12.60;100.00;101967.53;2102251;28;20069;-74
2022/10/23 04:44:38;;;;;;;7.10;2.20;;;;;;;12.60;100.00;101971.97;2085604;28;20045;-73
2022/10/23 04:45:59;;;;;;;6.75;2.13;;;;;;;12.60;100.00;101959.56;2091745;28;20139;-73
2022/10/23 04:47:21;;;;;;;9.57;2.25;;;;;;;12.61;100.00;101961.38;2102095;28;20142;-73
2022/10/23 04:48:53;;;;;;;4.38;1.95;;;;;;;12.65;100.00;101965.03;2094834;28;20051;-73
2022/10/23 04:50:15;;;;;;;6.70;2.63;;;;;;;12.67;100.00;101966.84;2100127;28;20052;-73
2022/10/23 04:51:56;;;;;;;5.97;2.25;;;;;;;12.70;100.00;101969.56;2104770;28;20511;-73
2022/10/23 04:53:39;;;;;;;10.43;3.17;;;;;;;12.72;100.00;101967.88;2072358;28;20116;-72
2022/10/23 04:55:22;;;;;;;9.10;2.47;;;;;;;12.70;100.00;101966.94;2103954;28;20066;-73
2022/10/23 04:57:01;;;;;;;5.88;1.90;;;;;;;12.71;100.00;101965.19;2092362;28;20082;-72
2022/10/23 04:58:33;;;;;;;6.43;2.60;;;;;;;12.70;100.00;101963.38;2099520;28;20048;-73
2022/10/23 04:59:55;;;;;;;10.80;2.33;;;;;;;12.73;100.00;101968.78;2101199;28;20079;-73
2022/10/23 05:01:18;;;;;;;8.27;2.03;;;;;;;12.72;100.00;101967.88;2093838;28;20040;-73
2022/10/23 05:02:41;;;;;;;9.38;2.60;;;;;;;12.73;100.00;101967.00;2091118;28;20056;-72
2022/10/23 05:04:06;;;;;;;;;;;;;;;12.70;100.00;101969.56;2091714;28;20049;-72
2022/10/23 05:05:34;;;;;;;8.30;2.10;;;;;;;12.72;100.00;101973.19;2092906;28;19970;-73
2022/10/23 05:07:22;;;;;;;8.35;2.72;;;;;;;12.78;100.00;101970.69;2098138;28;20522;-73
2022/10/23 05:08:54;;;;;;;;;;;;;;;12.79;100.00;101963.63;2094621;28;20049;-73
2022/10/23 05:10:30;;;;;;;13.55;2.53;;;;;;;12.88;100.00;101968.25;2102711;28;19928;-72
2022/10/23 05:12:01;;;;;;;8.82;2.08;;;;;;;13.03;100.00;101974.84;2088033;28;20049;-72
2022/10/23 05:13:23;;;;;;;9.95;2.35;;;;;;;13.22;100.00;101977.97;2092894;28;20517;-73
2022/10/23 05:14:45;;;;;;;5.57;2.00;;;;;;;13.39;100.00;101974.84;2093267;28;20036;-73
2022/10/23 05:16:08;;;;;;;5.10;2.05;;;;;;;13.58;100.00;101978.88;2090603;28;20086;-73
2022/10/23 05:17:33;;;;;;;7.78;2.58;;;;;;;13.79;100.00;101974.00;2093861;28;20043;-73
2022/10/23 05:18:58;;;;;;;6.35;2.15;;;;;;;13.98;100.00;101977.09;2094353;28;20373;-73
2022/10/23 05:20:27;;;;;;;6.82;1.85;;;;;;;14.18;100.00;101973.06;2098750;28;20503;-73
2022/10/23 05:21:54;;;;;;;7.57;2.40;;;;;;;14.34;100.00;101970.75;2094178;28;20058;-72
2022/10/23 05:23:24;;;;;;;7.80;1.85;;;;;;;14.51;100.00;101970.19;2102156;28;20101;-73
2022/10/23 05:24:53;;;;;;;8.82;2.10;;;;;;;14.65;100.00;101976.66;2094996;28;20467;-73
2022/10/23 05:26:21;;;;;;;7.30;1.80;;;;;;;14.81;100.00;101968.13;2094184;28;20056;-73
2022/10/23 05:27:43;;;;;;;5.55;1.70;;;;;;;14.96;100.00;101976.38;2090567;28;20107;-73
2022/10/23 05:29:08;;;;;;;7.10;2.20;;;;;;;15.09;100.00;101973.06;2094649;28;20405;-73
2022/10/23 05:30:31;;;;;;;6.32;1.67;;;;;;;15.26;100.00;101981.28;2099238;28;20036;-73
2022/10/23 05:32:01;;;;;;;6.35;1.70;;;;;;;15.41;100.00;101977.97;2094280;28;20155;-73
2022/10/23 05:33:24;;;;;;;13.35;2.10;;;;;;;15.53;100.00;101979.09;2096371;28;20492;-73
2022/10/23 05:34:47;;;;;;;6.40;1.90;;;;;;;15.64;100.00;101984.56;2093302;28;20566;-73
2022/10/23 05:36:13;;;;;;;5.15;1.70;;;;;;;15.77;100.00;101983.84;2107754;28;20039;-73
2022/10/23 05:37:38;;;;;;;5.78;1.65;;;;;;;15.90;100.00;101974.25;2096015;28;20048;-73
2022/10/23 05:39:09;;;;;;;8.52;1.60;;;;;;;16.03;100.00;101970.88;2093858;28;20049;-73
2022/10/23 05:40:32;;;;;;;5.88;1.77;;;;;;;16.16;100.00;101969.28;2089297;28;20056;-73
2022/10/23 05:41:59;;;;;;;8.10;2.08;;;;;;;16.32;100.00;101965.91;2093612;28;20081;-73
2022/10/23 05:43:21;;;;;;;7.97;1.50;;;;;;;16.46;100.00;101976.75;2098955;28;20824;-73
2022/10/23 05:44:48;;;;;;;5.90;1.42;;;;;;;16.58;100.00;101971.53;2094026;28;20033;-73
2022/10/23 05:46:21;;;;;;;9.50;1.70;;;;;;;16.72;100.00;101962.84;2102154;28;20044;-73
2022/10/23 05:48:09;;;;;;;4.07;1.50;;;;;;;16.86;100.00;101964.75;2095390;28;20072;-73
2022/10/23 05:49:50;;;;;;;7.57;2.05;;;;;;;16.96;100.00;101963.94;2110862;28;20046;-74
2022/10/23 05:51:26;;;;;;;6.10;1.88;;;;;;;17.04;100.00;101955.13;2094739;28;20040;-73
2022/10/23 05:53:16;;;;;;;6.55;1.52;;;;;;;17.16;100.00;101956.97;2096087;28;20060;-72
2022/10/23 05:54:51;;;;;;;5.75;1.60;;;;;;;17.28;100.00;101957.06;2093805;28;20052;-73
2022/10/23 05:56:40;;;;;;;5.35;1.58;;;;;;;17.42;100.00;101949.16;2102223;28;20085;-73
2022/10/23 05:58:15;;;;;;;7.30;2.00;;;;;;;17.56;100.00;101949.25;2097666;28;20044;-73
2022/10/23 06:00:11;;;;;;;7.28;2.05;;;;;;;17.71;100.00;101949.38;2098459;28;20130;-73
2022/10/23 06:01:37;;;;;;;3.92;1.60;;;;;;;17.83;100.00;101945.00;2102550;28;20400;-74
2022/10/23 06:03:02;;;;;;;8.38;1.40;;;;;;;17.95;100.00;101949.50;2102013;28;20052;-74
2022/10/23 06:04:32;;;;;;;7.45;1.90;;;;;;;18.08;100.00;101937.06;2096317;28;20044;-73
2022/10/23 06:06:14;;;;;;;6.97;1.25;;;;;;;18.24;100.00;101941.59;2103641;28;20048;-74
2022/10/23 06:07:44;;;;;;;7.68;1.52;;;;;;;18.40;99.17;101937.16;2093949;28;20045;-74
2022/10/23 06:09:05;;;;;;;5.43;1.98;;;;;;;18.54;98.53;101938.97;2093003;28;20106;-73
2022/10/23 06:10:33;;;;;;;5.75;1.52;;;;;;;18.71;97.52;101947.94;2094200;28;20048;-73
2022/10/23 06:12:00;;;;;;;4.15;1.05;;;;;;;18.86;96.67;101949.75;2094883;28;20044;-74
2022/10/23 06:13:23;;;;;;;5.50;1.45;;;;;;;19.01;96.81;101940.84;2090286;28;20047;-74
2022/10/23 06:14:44;;;;;;;4.95;1.80;;;;;;;19.12;95.54;101941.72;2096229;28;20087;-74
2022/10/23 06:16:11;;;;;;;5.70;1.58;;;;;;;19.24;93.39;101940.81;2093131;28;20067;-74
2022/10/23 06:17:34;;;;;;;5.15;1.58;;;;;;;19.36;92.43;101943.50;2075805;28;20050;-74
2022/10/23 06:18:57;;;;;;;7.38;1.65;;;;;;;19.49;91.37;101942.63;2095881;28;20051;-74
2022/10/23 06:20:18;;;;;;;6.22;1.63;;;;;;;19.63;90.99;101943.44;2093734;28;20048;-74
2022/10/23 06:21:49;;;;;;;4.95;1.95;;;;;;;19.79;89.80;101937.16;2094356;28;20123;-74
2022/10/23 06:23:13;;;;;;;10.30;3.45;;;;;;;19.91;87.95;101936.22;2097866;28;20082;-74
2022/10/23 06:25:01;;;;;;;6.03;2.88;;;;;;;20.05;86.51;101937.06;2084583;28;20047;-74
2022/10/23 06:26:24;;;;;;;7.05;2.17;;;;;;;20.18;85.39;101940.56;2093565;28;20049;-74
2022/10/23 06:28:04;;;;;;;5.43;1.67;;;;;;;20.29;85.56;101931.56;2097183;28;20051;-75
2022/10/23 06:29:25;;;;;;;9.27;1.45;;;;;;;20.45;84.87;101937.78;2094975;28;20157;-74
2022/10/23 06:30:49;;;;;;;7.95;1.38;;;;;;;20.61;82.61;101928.69;2092543;28;20582;-74
2022/10/23 06:32:11;;;;;;;6.45;1.60;;;;;;;20.73;81.05;101938.50;2095039;28;20056;-74
2022/10/23 06:33:34;;;;;;;4.55;1.52;;;;;;;20.84;80.62;101941.97;2100018;28;20048;-74
2022/10/23 06:34:59;;;;;;;3.83;1.92;;;;;;;21.00;79.96;101940.06;2097580;28;20131;-74
2022/10/23 06:36:20;;;;;;;7.50;1.73;;;;;;;21.14;78.90;101931.84;2095052;28;20064;-74
2022/10/23 06:37:43;;;;;;;9.25;1.60;;;;;;;21.25;77.84;101930.03;2100367;28;20056;-74